sensor_id;sensor_type;location;lat;lon;timestamp;P1;durP1;ratioP1;P2;durP2;ratioP2
6386;SDS011;3226;42.162;24.756;2024-01-25T00:00:51;43.53;;;25.93;;
6386;SDS011;3226;42.162;24.756;2024-01-25T00:03:20;41.73;;;24.77;;
6386;SDS011;3226;42.162;24.756;2024-01-25T00:05:49;45.43;;;24.53;;
6386;SDS011;3226;42.162;24.756;2024-01-25T00:08:17;36.73;;;23.67;;
6386;SDS011;3226;42.162;24.756;2024-01-25T00:10:45;41.37;;;23.83;;
6386;SDS011;3226;42.162;24.756;2024-01-25T00:13:13;42.60;;;23.57;;
6386;SDS011;3226;42.162;24.756;2024-01-25T00:15:41;36.13;;;23.00;;
6386;SDS011;3226;42.162;24.756;2024-01-25T00:18:09;36.63;;;25.70;;
6386;SDS011;3226;42.162;24.756;2024-01-25T00:20:37;37.77;;;23.73;;
6386;SDS011;3226;42.162;24.756;2024-01-25T00:23:07;36.50;;;22.33;;
6386;SDS011;3226;42.162;24.756;2024-01-25T00:25:35;35.60;;;22.03;;
6386;SDS011;3226;42.162;24.756;2024-01-25T00:28:03;34.20;;;21.93;;
6386;SDS011;3226;42.162;24.756;2024-01-25T00:30:31;34.20;;;21.53;;
6386;SDS011;3226;42.162;24.756;2024-01-25T00:32:59;33.83;;;21.73;;
6386;SDS011;3226;42.162;24.756;2024-01-25T00:35:28;36.07;;;23.00;;
6386;SDS011;3226;42.162;24.756;2024-01-25T00:37:57;39.13;;;24.07;;
6386;SDS011;3226;42.162;24.756;2024-01-25T00:40:28;40.07;;;23.83;;
6386;SDS011;3226;42.162;24.756;2024-01-25T00:42:56;41.70;;;24.17;;
6386;SDS011;3226;42.162;24.756;2024-01-25T00:45:25;42.47;;;32.47;;
6386;SDS011;3226;42.162;24.756;2024-01-25T00:47:54;40.40;;;21.63;;
6386;SDS011;3226;42.162;24.756;2024-01-25T00:50:22;34.17;;;20.93;;
6386;SDS011;3226;42.162;24.756;2024-01-25T00:52:52;35.87;;;21.77;;
6386;SDS011;3226;42.162;24.756;2024-01-25T00:55:21;31.70;;;19.93;;
6386;SDS011;3226;42.162;24.756;2024-01-25T00:57:52;31.80;;;20.37;;
6386;SDS011;3226;42.162;24.756;2024-01-25T01:00:21;30.43;;;19.63;;
6386;SDS011;3226;42.162;24.756;2024-01-25T01:02:50;35.97;;;18.60;;
6386;SDS011;3226;42.162;24.756;2024-01-25T01:05:19;26.60;;;18.07;;
6386;SDS011;3226;42.162;24.756;2024-01-25T01:07:48;24.90;;;16.07;;
6386;SDS011;3226;42.162;24.756;2024-01-25T01:10:17;20.83;;;13.57;;
6386;SDS011;3226;42.162;24.756;2024-01-25T01:12:45;23.23;;;12.97;;
6386;SDS011;3226;42.162;24.756;2024-01-25T01:15:15;15.53;;;12.97;;
6386;SDS011;3226;42.162;24.756;2024-01-25T01:17:44;13.23;;;11.83;;
6386;SDS011;3226;42.162;24.756;2024-01-25T01:20:12;20.07;;;13.00;;
6386;SDS011;3226;42.162;24.756;2024-01-25T01:22:40;16.37;;;11.10;;
6386;SDS011;3226;42.162;24.756;2024-01-25T01:25:09;16.87;;;12.57;;
6386;SDS011;3226;42.162;24.756;2024-01-25T01:27:37;11.63;;;9.57;;
6386;SDS011;3226;42.162;24.756;2024-01-25T01:30:05;10.93;;;10.03;;
6386;SDS011;3226;42.162;24.756;2024-01-25T01:32:37;10.00;;;8.60;;
6386;SDS011;3226;42.162;24.756;2024-01-25T01:35:05;8.93;;;8.13;;
6386;SDS011;3226;42.162;24.756;2024-01-25T01:37:34;7.40;;;6.90;;
6386;SDS011;3226;42.162;24.756;2024-01-25T01:40:02;7.83;;;7.23;;
6386;SDS011;3226;42.162;24.756;2024-01-25T01:42:30;7.77;;;7.27;;
6386;SDS011;3226;42.162;24.756;2024-01-25T01:45:00;7.63;;;7.03;;
6386;SDS011;3226;42.162;24.756;2024-01-25T01:47:28;7.97;;;7.43;;
6386;SDS011;3226;42.162;24.756;2024-01-25T01:49:57;6.90;;;6.40;;
6386;SDS011;3226;42.162;24.756;2024-01-25T01:52:26;6.17;;;5.73;;
6386;SDS011;3226;42.162;24.756;2024-01-25T01:54:54;7.23;;;6.70;;
6386;SDS011;3226;42.162;24.756;2024-01-25T01:57:23;8.33;;;7.53;;
6386;SDS011;3226;42.162;24.756;2024-01-25T01:59:54;9.10;;;8.47;;
6386;SDS011;3226;42.162;24.756;2024-01-25T02:02:22;8.07;;;7.57;;
6386;SDS011;3226;42.162;24.756;2024-01-25T02:04:51;7.93;;;7.37;;
6386;SDS011;3226;42.162;24.756;2024-01-25T02:07:20;10.33;;;9.47;;
6386;SDS011;3226;42.162;24.756;2024-01-25T02:09:48;12.83;;;12.13;;
6386;SDS011;3226;42.162;24.756;2024-01-25T02:12:17;13.23;;;12.33;;
6386;SDS011;3226;42.162;24.756;2024-01-25T02:14:45;9.87;;;9.17;;
6386;SDS011;3226;42.162;24.756;2024-01-25T02:17:13;8.83;;;8.17;;
6386;SDS011;3226;42.162;24.756;2024-01-25T02:19:41;7.93;;;7.33;;
6386;SDS011;3226;42.162;24.756;2024-01-25T02:22:09;6.93;;;6.37;;
6386;SDS011;3226;42.162;24.756;2024-01-25T02:24:39;12.23;;;11.50;;
6386;SDS011;3226;42.162;24.756;2024-01-25T02:27:07;7.33;;;6.80;;
6386;SDS011;3226;42.162;24.756;2024-01-25T02:29:35;10.43;;;9.73;;
6386;SDS011;3226;42.162;24.756;2024-01-25T02:32:03;10.93;;;10.30;;
6386;SDS011;3226;42.162;24.756;2024-01-25T02:34:32;17.30;;;16.00;;
6386;SDS011;3226;42.162;24.756;2024-01-25T02:37:00;19.90;;;18.80;;
6386;SDS011;3226;42.162;24.756;2024-01-25T02:39:29;21.13;;;19.93;;
6386;SDS011;3226;42.162;24.756;2024-01-25T02:41:58;21.23;;;20.00;;
6386;SDS011;3226;42.162;24.756;2024-01-25T02:44:26;14.67;;;13.57;;
6386;SDS011;3226;42.162;24.756;2024-01-25T02:46:54;19.90;;;18.70;;
6386;SDS011;3226;42.162;24.756;2024-01-25T02:49:22;22.60;;;21.27;;
6386;SDS011;3226;42.162;24.756;2024-01-25T02:51:51;13.47;;;12.43;;
6386;SDS011;3226;42.162;24.756;2024-01-25T02:54:19;16.87;;;15.87;;
6386;SDS011;3226;42.162;24.756;2024-01-25T02:56:47;18.13;;;17.07;;
6386;SDS011;3226;42.162;24.756;2024-01-25T02:59:17;10.63;;;9.83;;
6386;SDS011;3226;42.162;24.756;2024-01-25T03:01:45;6.67;;;6.27;;
6386;SDS011;3226;42.162;24.756;2024-01-25T03:04:13;7.90;;;7.30;;
6386;SDS011;3226;42.162;24.756;2024-01-25T03:06:42;6.60;;;6.13;;
6386;SDS011;3226;42.162;24.756;2024-01-25T03:09:10;6.43;;;5.83;;
6386;SDS011;3226;42.162;24.756;2024-01-25T03:11:39;5.77;;;5.37;;
6386;SDS011;3226;42.162;24.756;2024-01-25T03:14:07;6.30;;;5.77;;
6386;SDS011;3226;42.162;24.756;2024-01-25T03:16:36;9.77;;;5.97;;
6386;SDS011;3226;42.162;24.756;2024-01-25T03:19:04;7.37;;;6.87;;
6386;SDS011;3226;42.162;24.756;2024-01-25T03:21:32;8.40;;;7.80;;
6386;SDS011;3226;42.162;24.756;2024-01-25T03:24:00;10.50;;;9.53;;
6386;SDS011;3226;42.162;24.756;2024-01-25T03:26:28;6.73;;;6.17;;
6386;SDS011;3226;42.162;24.756;2024-01-25T03:28:56;8.10;;;7.40;;
6386;SDS011;3226;42.162;24.756;2024-01-25T03:31:24;12.23;;;11.33;;
6386;SDS011;3226;42.162;24.756;2024-01-25T03:33:54;8.57;;;7.93;;
6386;SDS011;3226;42.162;24.756;2024-01-25T03:36:22;8.33;;;7.67;;
6386;SDS011;3226;42.162;24.756;2024-01-25T03:38:50;8.10;;;7.53;;
6386;SDS011;3226;42.162;24.756;2024-01-25T03:41:18;7.03;;;6.43;;
6386;SDS011;3226;42.162;24.756;2024-01-25T03:43:46;7.17;;;6.63;;
6386;SDS011;3226;42.162;24.756;2024-01-25T03:46:14;8.93;;;8.23;;
6386;SDS011;3226;42.162;24.756;2024-01-25T03:48:43;11.77;;;10.90;;
6386;SDS011;3226;42.162;24.756;2024-01-25T03:51:12;13.50;;;12.63;;
6386;SDS011;3226;42.162;24.756;2024-01-25T03:53:41;8.60;;;8.00;;
6386;SDS011;3226;42.162;24.756;2024-01-25T03:56:10;9.30;;;8.70;;
6386;SDS011;3226;42.162;24.756;2024-01-25T03:58:39;9.37;;;8.77;;
6386;SDS011;3226;42.162;24.756;2024-01-25T04:01:07;10.77;;;9.97;;
6386;SDS011;3226;42.162;24.756;2024-01-25T04:03:35;10.30;;;9.60;;
6386;SDS011;3226;42.162;24.756;2024-01-25T04:06:04;9.20;;;8.60;;
6386;SDS011;3226;42.162;24.756;2024-01-25T04:08:34;9.27;;;8.73;;
6386;SDS011;3226;42.162;24.756;2024-01-25T04:11:02;10.17;;;9.57;;
6386;SDS011;3226;42.162;24.756;2024-01-25T04:13:30;5.77;;;5.47;;
6386;SDS011;3226;42.162;24.756;2024-01-25T04:15:58;5.53;;;5.23;;
6386;SDS011;3226;42.162;24.756;2024-01-25T04:18:26;6.70;;;6.30;;
6386;SDS011;3226;42.162;24.756;2024-01-25T04:20:54;6.27;;;5.50;;
6386;SDS011;3226;42.162;24.756;2024-01-25T04:23:22;7.43;;;6.93;;
6386;SDS011;3226;42.162;24.756;2024-01-25T04:25:52;6.33;;;5.40;;
6386;SDS011;3226;42.162;24.756;2024-01-25T04:28:21;5.80;;;5.40;;
6386;SDS011;3226;42.162;24.756;2024-01-25T04:30:50;5.13;;;4.83;;
6386;SDS011;3226;42.162;24.756;2024-01-25T04:33:18;5.77;;;5.40;;
6386;SDS011;3226;42.162;24.756;2024-01-25T04:35:47;5.90;;;5.60;;
6386;SDS011;3226;42.162;24.756;2024-01-25T04:38:15;6.33;;;5.93;;
6386;SDS011;3226;42.162;24.756;2024-01-25T04:40:43;5.37;;;4.97;;
6386;SDS011;3226;42.162;24.756;2024-01-25T04:43:12;6.10;;;5.60;;
6386;SDS011;3226;42.162;24.756;2024-01-25T04:45:41;5.23;;;4.83;;
6386;SDS011;3226;42.162;24.756;2024-01-25T04:48:09;6.03;;;5.60;;
6386;SDS011;3226;42.162;24.756;2024-01-25T04:50:37;5.67;;;5.37;;
6386;SDS011;3226;42.162;24.756;2024-01-25T04:53:06;5.30;;;5.00;;
6386;SDS011;3226;42.162;24.756;2024-01-25T04:55:34;4.90;;;4.60;;
6386;SDS011;3226;42.162;24.756;2024-01-25T04:58:03;6.13;;;4.60;;
6386;SDS011;3226;42.162;24.756;2024-01-25T05:00:32;5.33;;;4.87;;
6386;SDS011;3226;42.162;24.756;2024-01-25T05:03:02;5.77;;;5.43;;
6386;SDS011;3226;42.162;24.756;2024-01-25T05:05:30;7.13;;;5.00;;
6386;SDS011;3226;42.162;24.756;2024-01-25T05:07:58;6.20;;;5.83;;
6386;SDS011;3226;42.162;24.756;2024-01-25T05:10:26;5.73;;;5.33;;
6386;SDS011;3226;42.162;24.756;2024-01-25T05:12:54;7.50;;;6.93;;
6386;SDS011;3226;42.162;24.756;2024-01-25T05:15:22;9.40;;;8.60;;
6386;SDS011;3226;42.162;24.756;2024-01-25T05:17:52;7.43;;;6.83;;
6386;SDS011;3226;42.162;24.756;2024-01-25T05:20:20;10.63;;;9.97;;
6386;SDS011;3226;42.162;24.756;2024-01-25T05:22:49;6.20;;;5.63;;
6386;SDS011;3226;42.162;24.756;2024-01-25T05:25:17;7.33;;;6.83;;
6386;SDS011;3226;42.162;24.756;2024-01-25T05:27:45;5.67;;;5.17;;
6386;SDS011;3226;42.162;24.756;2024-01-25T05:30:13;6.63;;;6.10;;
6386;SDS011;3226;42.162;24.756;2024-01-25T05:32:41;6.13;;;5.57;;
6386;SDS011;3226;42.162;24.756;2024-01-25T05:35:11;6.50;;;6.10;;
6386;SDS011;3226;42.162;24.756;2024-01-25T05:37:39;6.47;;;6.07;;
6386;SDS011;3226;42.162;24.756;2024-01-25T05:40:08;8.43;;;7.73;;
6386;SDS011;3226;42.162;24.756;2024-01-25T05:42:36;7.93;;;7.53;;
6386;SDS011;3226;42.162;24.756;2024-01-25T05:45:04;8.33;;;7.70;;
6386;SDS011;3226;42.162;24.756;2024-01-25T05:47:33;8.17;;;7.50;;
6386;SDS011;3226;42.162;24.756;2024-01-25T05:50:01;5.23;;;4.93;;
6386;SDS011;3226;42.162;24.756;2024-01-25T05:52:32;5.40;;;5.00;;
6386;SDS011;3226;42.162;24.756;2024-01-25T05:55:03;6.90;;;5.43;;
6386;SDS011;3226;42.162;24.756;2024-01-25T05:57:34;8.07;;;7.50;;
6386;SDS011;3226;42.162;24.756;2024-01-25T06:00:03;7.20;;;6.70;;
6386;SDS011;3226;42.162;24.756;2024-01-25T06:02:32;7.90;;;5.30;;
6386;SDS011;3226;42.162;24.756;2024-01-25T06:05:00;5.90;;;5.37;;
6386;SDS011;3226;42.162;24.756;2024-01-25T06:07:28;5.80;;;5.30;;
6386;SDS011;3226;42.162;24.756;2024-01-25T06:09:58;9.47;;;8.87;;
6386;SDS011;3226;42.162;24.756;2024-01-25T06:12:26;7.87;;;7.23;;
6386;SDS011;3226;42.162;24.756;2024-01-25T06:14:54;7.20;;;6.57;;
6386;SDS011;3226;42.162;24.756;2024-01-25T06:17:22;7.67;;;7.07;;
6386;SDS011;3226;42.162;24.756;2024-01-25T06:19:51;6.70;;;6.10;;
6386;SDS011;3226;42.162;24.756;2024-01-25T06:22:19;6.47;;;6.07;;
6386;SDS011;3226;42.162;24.756;2024-01-25T06:24:47;6.90;;;6.30;;
6386;SDS011;3226;42.162;24.756;2024-01-25T06:27:17;8.00;;;7.30;;
6386;SDS011;3226;42.162;24.756;2024-01-25T06:29:45;9.07;;;8.07;;
6386;SDS011;3226;42.162;24.756;2024-01-25T06:32:13;14.23;;;13.33;;
6386;SDS011;3226;42.162;24.756;2024-01-25T06:34:51;23.43;;;22.07;;
6386;SDS011;3226;42.162;24.756;2024-01-25T06:37:20;16.80;;;15.37;;
6386;SDS011;3226;42.162;24.756;2024-01-25T06:39:48;13.87;;;13.10;;
6386;SDS011;3226;42.162;24.756;2024-01-25T06:42:18;13.33;;;12.50;;
6386;SDS011;3226;42.162;24.756;2024-01-25T06:44:46;17.10;;;15.10;;
6386;SDS011;3226;42.162;24.756;2024-01-25T06:47:14;14.93;;;13.93;;
6386;SDS011;3226;42.162;24.756;2024-01-25T06:49:42;8.03;;;7.50;;
6386;SDS011;3226;42.162;24.756;2024-01-25T06:52:11;8.90;;;8.17;;
6386;SDS011;3226;42.162;24.756;2024-01-25T06:54:39;8.73;;;8.13;;
6386;SDS011;3226;42.162;24.756;2024-01-25T06:57:07;10.03;;;9.33;;
6386;SDS011;3226;42.162;24.756;2024-01-25T06:59:37;7.40;;;6.70;;
6386;SDS011;3226;42.162;24.756;2024-01-25T07:02:05;10.30;;;7.30;;
6386;SDS011;3226;42.162;24.756;2024-01-25T07:04:34;7.70;;;6.30;;
6386;SDS011;3226;42.162;24.756;2024-01-25T07:07:04;15.90;;;14.73;;
6386;SDS011;3226;42.162;24.756;2024-01-25T07:09:33;12.03;;;11.30;;
6386;SDS011;3226;42.162;24.756;2024-01-25T07:12:00;10.30;;;9.50;;
6386;SDS011;3226;42.162;24.756;2024-01-25T07:14:28;9.97;;;8.63;;
6386;SDS011;3226;42.162;24.756;2024-01-25T07:16:58;12.70;;;11.90;;
6386;SDS011;3226;42.162;24.756;2024-01-25T07:19:26;6.10;;;5.47;;
6386;SDS011;3226;42.162;24.756;2024-01-25T07:21:54;11.17;;;7.83;;
6386;SDS011;3226;42.162;24.756;2024-01-25T07:24:22;10.80;;;10.10;;
6386;SDS011;3226;42.162;24.756;2024-01-25T07:26:50;14.17;;;12.40;;
6386;SDS011;3226;42.162;24.756;2024-01-25T07:29:21;10.80;;;10.03;;
6386;SDS011;3226;42.162;24.756;2024-01-25T07:31:49;13.00;;;12.00;;
6386;SDS011;3226;42.162;24.756;2024-01-25T07:34:18;8.10;;;7.30;;
6386;SDS011;3226;42.162;24.756;2024-01-25T07:36:46;6.73;;;5.93;;
6386;SDS011;3226;42.162;24.756;2024-01-25T07:39:14;7.07;;;6.33;;
6386;SDS011;3226;42.162;24.756;2024-01-25T07:41:42;6.70;;;6.10;;
6386;SDS011;3226;42.162;24.756;2024-01-25T07:44:10;20.80;;;14.30;;
6386;SDS011;3226;42.162;24.756;2024-01-25T07:46:39;10.07;;;8.97;;
6386;SDS011;3226;42.162;24.756;2024-01-25T07:49:07;12.40;;;8.87;;
6386;SDS011;3226;42.162;24.756;2024-01-25T07:51:36;11.23;;;6.67;;
6386;SDS011;3226;42.162;24.756;2024-01-25T07:54:04;7.70;;;5.80;;
6386;SDS011;3226;42.162;24.756;2024-01-25T07:56:32;11.90;;;6.33;;
6386;SDS011;3226;42.162;24.756;2024-01-25T07:59:00;6.30;;;5.60;;
6386;SDS011;3226;42.162;24.756;2024-01-25T08:01:28;7.80;;;7.07;;
6386;SDS011;3226;42.162;24.756;2024-01-25T08:03:56;5.90;;;5.40;;
6386;SDS011;3226;42.162;24.756;2024-01-25T08:06:24;7.23;;;5.67;;
6386;SDS011;3226;42.162;24.756;2024-01-25T08:08:54;7.17;;;5.87;;
6386;SDS011;3226;42.162;24.756;2024-01-25T08:11:22;12.60;;;6.03;;
6386;SDS011;3226;42.162;24.756;2024-01-25T08:13:51;7.27;;;6.57;;
6386;SDS011;3226;42.162;24.756;2024-01-25T08:16:19;7.40;;;6.73;;
6386;SDS011;3226;42.162;24.756;2024-01-25T08:18:47;10.70;;;7.07;;
6386;SDS011;3226;42.162;24.756;2024-01-25T08:21:16;8.67;;;6.10;;
6386;SDS011;3226;42.162;24.756;2024-01-25T08:23:44;10.10;;;6.87;;
6386;SDS011;3226;42.162;24.756;2024-01-25T08:26:14;9.07;;;8.37;;
6386;SDS011;3226;42.162;24.756;2024-01-25T08:28:42;7.47;;;6.77;;
6386;SDS011;3226;42.162;24.756;2024-01-25T08:31:10;8.97;;;8.17;;
6386;SDS011;3226;42.162;24.756;2024-01-25T08:33:39;7.43;;;6.77;;
6386;SDS011;3226;42.162;24.756;2024-01-25T08:36:08;7.10;;;6.50;;
6386;SDS011;3226;42.162;24.756;2024-01-25T08:38:36;8.63;;;7.87;;
6386;SDS011;3226;42.162;24.756;2024-01-25T08:41:04;9.27;;;8.30;;
6386;SDS011;3226;42.162;24.756;2024-01-25T08:43:33;20.60;;;18.93;;
6386;SDS011;3226;42.162;24.756;2024-01-25T08:46:01;13.50;;;7.87;;
6386;SDS011;3226;42.162;24.756;2024-01-25T08:48:30;10.93;;;9.93;;
6386;SDS011;3226;42.162;24.756;2024-01-25T08:50:58;14.83;;;9.13;;
6386;SDS011;3226;42.162;24.756;2024-01-25T08:53:27;10.27;;;8.30;;
6386;SDS011;3226;42.162;24.756;2024-01-25T08:55:55;14.80;;;9.30;;
6386;SDS011;3226;42.162;24.756;2024-01-25T08:58:23;13.50;;;10.57;;
6386;SDS011;3226;42.162;24.756;2024-01-25T09:00:52;8.57;;;7.67;;
6386;SDS011;3226;42.162;24.756;2024-01-25T09:03:20;9.67;;;6.83;;
6386;SDS011;3226;42.162;24.756;2024-01-25T09:05:49;9.77;;;8.83;;
6386;SDS011;3226;42.162;24.756;2024-01-25T09:08:17;9.17;;;6.80;;
6386;SDS011;3226;42.162;24.756;2024-01-25T09:10:46;7.33;;;6.73;;
6386;SDS011;3226;42.162;24.756;2024-01-25T09:13:14;8.63;;;6.90;;
6386;SDS011;3226;42.162;24.756;2024-01-25T09:15:42;12.67;;;7.47;;
6386;SDS011;3226;42.162;24.756;2024-01-25T09:18:14;11.77;;;6.70;;
6386;SDS011;3226;42.162;24.756;2024-01-25T09:20:42;5.80;;;5.20;;
6386;SDS011;3226;42.162;24.756;2024-01-25T09:23:14;12.63;;;6.43;;
6386;SDS011;3226;42.162;24.756;2024-01-25T09:25:43;10.27;;;9.27;;
6386;SDS011;3226;42.162;24.756;2024-01-25T09:28:12;11.30;;;9.87;;
6386;SDS011;3226;42.162;24.756;2024-01-25T09:30:41;7.67;;;6.53;;
6386;SDS011;3226;42.162;24.756;2024-01-25T09:33:09;10.57;;;6.80;;
6386;SDS011;3226;42.162;24.756;2024-01-25T09:35:39;12.87;;;7.17;;
6386;SDS011;3226;42.162;24.756;2024-01-25T09:38:07;18.43;;;6.97;;
6386;SDS011;3226;42.162;24.756;2024-01-25T09:40:36;10.60;;;7.23;;
6386;SDS011;3226;42.162;24.756;2024-01-25T09:43:04;9.53;;;6.53;;
6386;SDS011;3226;42.162;24.756;2024-01-25T09:45:32;6.73;;;5.67;;
6386;SDS011;3226;42.162;24.756;2024-01-25T09:48:01;11.23;;;7.67;;
6386;SDS011;3226;42.162;24.756;2024-01-25T09:50:31;11.50;;;9.10;;
6386;SDS011;3226;42.162;24.756;2024-01-25T09:53:02;18.17;;;16.57;;
6386;SDS011;3226;42.162;24.756;2024-01-25T09:55:33;15.27;;;14.03;;
6386;SDS011;3226;42.162;24.756;2024-01-25T09:58:08;31.20;;;29.17;;
6386;SDS011;3226;42.162;24.756;2024-01-25T10:00:38;21.27;;;19.60;;
6386;SDS011;3226;42.162;24.756;2024-01-25T10:03:06;9.20;;;8.30;;
6386;SDS011;3226;42.162;24.756;2024-01-25T10:05:37;14.77;;;6.53;;
6386;SDS011;3226;42.162;24.756;2024-01-25T10:08:11;10.83;;;8.97;;
6386;SDS011;3226;42.162;24.756;2024-01-25T10:10:41;10.30;;;7.90;;
6386;SDS011;3226;42.162;24.756;2024-01-25T10:13:11;9.83;;;7.47;;
6386;SDS011;3226;42.162;24.756;2024-01-25T10:15:40;10.97;;;7.37;;
6386;SDS011;3226;42.162;24.756;2024-01-25T10:18:10;14.00;;;8.50;;
6386;SDS011;3226;42.162;24.756;2024-01-25T10:20:54;10.63;;;7.10;;
6386;SDS011;3226;42.162;24.756;2024-01-25T10:23:24;9.50;;;7.87;;
6386;SDS011;3226;42.162;24.756;2024-01-25T10:25:53;6.83;;;6.27;;
6386;SDS011;3226;42.162;24.756;2024-01-25T10:28:24;6.60;;;6.10;;
6386;SDS011;3226;42.162;24.756;2024-01-25T10:30:55;8.37;;;6.60;;
6386;SDS011;3226;42.162;24.756;2024-01-25T10:33:24;9.17;;;7.13;;
6386;SDS011;3226;42.162;24.756;2024-01-25T10:35:54;11.17;;;7.33;;
6386;SDS011;3226;42.162;24.756;2024-01-25T10:38:30;10.47;;;8.50;;
6386;SDS011;3226;42.162;24.756;2024-01-25T10:41:00;7.53;;;6.53;;
6386;SDS011;3226;42.162;24.756;2024-01-25T10:43:29;15.10;;;7.27;;
6386;SDS011;3226;42.162;24.756;2024-01-25T10:45:59;8.07;;;7.43;;
6386;SDS011;3226;42.162;24.756;2024-01-25T10:48:30;13.27;;;7.37;;
6386;SDS011;3226;42.162;24.756;2024-01-25T10:50:59;10.50;;;7.13;;
6386;SDS011;3226;42.162;24.756;2024-01-25T10:53:32;9.17;;;7.63;;
6386;SDS011;3226;42.162;24.756;2024-01-25T10:56:01;8.53;;;6.50;;
6386;SDS011;3226;42.162;24.756;2024-01-25T10:58:30;8.47;;;6.80;;
6386;SDS011;3226;42.162;24.756;2024-01-25T11:01:07;9.93;;;6.30;;
6386;SDS011;3226;42.162;24.756;2024-01-25T11:03:42;7.47;;;6.20;;
6386;SDS011;3226;42.162;24.756;2024-01-25T11:06:10;8.13;;;7.23;;
6386;SDS011;3226;42.162;24.756;2024-01-25T11:08:41;11.10;;;8.83;;
6386;SDS011;3226;42.162;24.756;2024-01-25T11:11:10;11.83;;;10.83;;
6386;SDS011;3226;42.162;24.756;2024-01-25T11:13:39;11.67;;;10.53;;
6386;SDS011;3226;42.162;24.756;2024-01-25T11:16:12;10.13;;;9.27;;
6386;SDS011;3226;42.162;24.756;2024-01-25T11:18:50;8.73;;;7.97;;
6386;SDS011;3226;42.162;24.756;2024-01-25T11:21:26;12.93;;;8.33;;
6386;SDS011;3226;42.162;24.756;2024-01-25T11:24:00;9.87;;;7.47;;
6386;SDS011;3226;42.162;24.756;2024-01-25T11:26:29;9.47;;;8.57;;
6386;SDS011;3226;42.162;24.756;2024-01-25T11:28:59;7.30;;;6.50;;
6386;SDS011;3226;42.162;24.756;2024-01-25T11:31:28;7.43;;;6.60;;
6386;SDS011;3226;42.162;24.756;2024-01-25T11:33:57;9.27;;;8.17;;
6386;SDS011;3226;42.162;24.756;2024-01-25T11:36:26;10.33;;;8.43;;
6386;SDS011;3226;42.162;24.756;2024-01-25T11:38:55;10.83;;;8.07;;
6386;SDS011;3226;42.162;24.756;2024-01-25T11:41:25;29.27;;;27.47;;
6386;SDS011;3226;42.162;24.756;2024-01-25T11:43:53;10.97;;;9.87;;
6386;SDS011;3226;42.162;24.756;2024-01-25T11:46:21;11.97;;;8.20;;
6386;SDS011;3226;42.162;24.756;2024-01-25T11:48:50;9.97;;;7.63;;
6386;SDS011;3226;42.162;24.756;2024-01-25T11:51:19;10.37;;;7.80;;
6386;SDS011;3226;42.162;24.756;2024-01-25T11:53:47;16.97;;;15.90;;
6386;SDS011;3226;42.162;24.756;2024-01-25T11:56:16;12.00;;;9.63;;
6386;SDS011;3226;42.162;24.756;2024-01-25T11:58:49;8.67;;;7.97;;
6386;SDS011;3226;42.162;24.756;2024-01-25T12:01:18;9.70;;;7.87;;
6386;SDS011;3226;42.162;24.756;2024-01-25T12:03:47;11.17;;;10.03;;
6386;SDS011;3226;42.162;24.756;2024-01-25T12:06:15;9.13;;;6.90;;
6386;SDS011;3226;42.162;24.756;2024-01-25T12:08:45;8.00;;;7.30;;
6386;SDS011;3226;42.162;24.756;2024-01-25T12:11:14;9.10;;;8.20;;
6386;SDS011;3226;42.162;24.756;2024-01-25T12:13:45;9.83;;;8.83;;
6386;SDS011;3226;42.162;24.756;2024-01-25T12:16:14;8.47;;;7.53;;
6386;SDS011;3226;42.162;24.756;2024-01-25T12:18:43;8.27;;;7.00;;
6386;SDS011;3226;42.162;24.756;2024-01-25T12:21:12;9.47;;;8.47;;
6386;SDS011;3226;42.162;24.756;2024-01-25T12:23:41;7.83;;;7.03;;
6386;SDS011;3226;42.162;24.756;2024-01-25T12:26:10;9.57;;;7.97;;
6386;SDS011;3226;42.162;24.756;2024-01-25T12:28:39;8.73;;;8.13;;
6386;SDS011;3226;42.162;24.756;2024-01-25T12:31:08;12.30;;;9.30;;
6386;SDS011;3226;42.162;24.756;2024-01-25T12:33:38;11.93;;;11.03;;
6386;SDS011;3226;42.162;24.756;2024-01-25T12:36:09;11.80;;;11.00;;
6386;SDS011;3226;42.162;24.756;2024-01-25T12:38:37;12.10;;;10.90;;
6386;SDS011;3226;42.162;24.756;2024-01-25T12:41:05;8.87;;;7.50;;
6386;SDS011;3226;42.162;24.756;2024-01-25T12:43:34;9.67;;;8.83;;
6386;SDS011;3226;42.162;24.756;2024-01-25T12:46:02;11.40;;;7.07;;
6386;SDS011;3226;42.162;24.756;2024-01-25T12:48:49;12.20;;;7.03;;
6386;SDS011;3226;42.162;24.756;2024-01-25T12:51:21;9.43;;;7.53;;
6386;SDS011;3226;42.162;24.756;2024-01-25T12:53:49;9.70;;;7.10;;
6386;SDS011;3226;42.162;24.756;2024-01-25T12:56:18;9.63;;;8.70;;
6386;SDS011;3226;42.162;24.756;2024-01-25T12:58:46;9.67;;;8.70;;
6386;SDS011;3226;42.162;24.756;2024-01-25T13:01:15;12.60;;;10.47;;
6386;SDS011;3226;42.162;24.756;2024-01-25T13:03:43;15.40;;;13.87;;
6386;SDS011;3226;42.162;24.756;2024-01-25T13:06:15;15.57;;;14.17;;
6386;SDS011;3226;42.162;24.756;2024-01-25T13:08:44;13.97;;;12.67;;
6386;SDS011;3226;42.162;24.756;2024-01-25T13:11:12;11.20;;;8.33;;
6386;SDS011;3226;42.162;24.756;2024-01-25T13:13:40;8.93;;;8.03;;
6386;SDS011;3226;42.162;24.756;2024-01-25T13:16:08;9.97;;;7.20;;
6386;SDS011;3226;42.162;24.756;2024-01-25T13:18:36;9.10;;;8.07;;
6386;SDS011;3226;42.162;24.756;2024-01-25T13:21:04;8.03;;;6.10;;
6386;SDS011;3226;42.162;24.756;2024-01-25T13:23:34;9.80;;;8.33;;
6386;SDS011;3226;42.162;24.756;2024-01-25T13:26:02;9.90;;;7.60;;
6386;SDS011;3226;42.162;24.756;2024-01-25T13:28:30;10.10;;;9.00;;
6386;SDS011;3226;42.162;24.756;2024-01-25T13:30:58;11.53;;;9.93;;
6386;SDS011;3226;42.162;24.756;2024-01-25T13:33:27;11.23;;;10.23;;
6386;SDS011;3226;42.162;24.756;2024-01-25T13:35:55;11.73;;;9.13;;
6386;SDS011;3226;42.162;24.756;2024-01-25T13:38:24;12.27;;;10.87;;
6386;SDS011;3226;42.162;24.756;2024-01-25T13:40:53;12.40;;;11.20;;
6386;SDS011;3226;42.162;24.756;2024-01-25T13:43:22;10.40;;;8.30;;
6386;SDS011;3226;42.162;24.756;2024-01-25T13:45:50;12.70;;;7.70;;
6386;SDS011;3226;42.162;24.756;2024-01-25T13:48:18;11.97;;;9.50;;
6386;SDS011;3226;42.162;24.756;2024-01-25T13:50:46;9.93;;;7.23;;
6386;SDS011;3226;42.162;24.756;2024-01-25T13:53:14;10.13;;;7.50;;
6386;SDS011;3226;42.162;24.756;2024-01-25T13:55:43;7.93;;;7.23;;
6386;SDS011;3226;42.162;24.756;2024-01-25T13:58:13;7.53;;;6.87;;
6386;SDS011;3226;42.162;24.756;2024-01-25T14:00:41;9.37;;;8.47;;
6386;SDS011;3226;42.162;24.756;2024-01-25T14:03:09;9.80;;;8.20;;
6386;SDS011;3226;42.162;24.756;2024-01-25T14:05:37;9.23;;;7.37;;
6386;SDS011;3226;42.162;24.756;2024-01-25T14:08:06;8.43;;;7.23;;
6386;SDS011;3226;42.162;24.756;2024-01-25T14:10:34;8.77;;;7.77;;
6386;SDS011;3226;42.162;24.756;2024-01-25T14:13:03;9.90;;;8.00;;
6386;SDS011;3226;42.162;24.756;2024-01-25T14:15:32;9.10;;;7.93;;
6386;SDS011;3226;42.162;24.756;2024-01-25T14:18:01;10.37;;;9.43;;
6386;SDS011;3226;42.162;24.756;2024-01-25T14:20:29;14.73;;;13.37;;
6386;SDS011;3226;42.162;24.756;2024-01-25T14:22:57;15.30;;;14.13;;
6386;SDS011;3226;42.162;24.756;2024-01-25T14:25:26;8.00;;;6.90;;
6386;SDS011;3226;42.162;24.756;2024-01-25T14:27:54;9.47;;;6.30;;
6386;SDS011;3226;42.162;24.756;2024-01-25T14:30:24;7.30;;;5.97;;
6386;SDS011;3226;42.162;24.756;2024-01-25T14:32:54;15.40;;;14.13;;
6386;SDS011;3226;42.162;24.756;2024-01-25T14:35:23;12.00;;;10.80;;
6386;SDS011;3226;42.162;24.756;2024-01-25T14:37:55;14.67;;;7.97;;
6386;SDS011;3226;42.162;24.756;2024-01-25T14:40:23;9.83;;;8.90;;
6386;SDS011;3226;42.162;24.756;2024-01-25T14:43:12;12.70;;;9.53;;
6386;SDS011;3226;42.162;24.756;2024-01-25T14:45:40;13.23;;;12.23;;
6386;SDS011;3226;42.162;24.756;2024-01-25T14:48:09;31.93;;;29.43;;
6386;SDS011;3226;42.162;24.756;2024-01-25T14:50:38;18.20;;;16.60;;
6386;SDS011;3226;42.162;24.756;2024-01-25T14:53:06;14.33;;;9.97;;
6386;SDS011;3226;42.162;24.756;2024-01-25T14:55:34;21.50;;;19.90;;
6386;SDS011;3226;42.162;24.756;2024-01-25T14:58:02;12.30;;;10.93;;
6386;SDS011;3226;42.162;24.756;2024-01-25T15:00:30;11.33;;;10.23;;